world map with KBJI marked

KBJI - Airport

This information may not be accurate or current and is not valid for navigation or flight planning. No warranty of fitness for any purpose is made or implied.

flag of Minnesotaflag of United States

Donate via PayPal

Additional information is available on the NEW Great Circle Mapper

Location
City:  Bemidji, Minnesota, United States
Name:Bemidji Regional
ICAO / IATA:KBJI / BJI
FAA:BJI

Details
Type:Airport (Part 139 Class I)
Use:Public/Civil
Latitude:47°30'39"N (47.510722)
Longitude:94°56'05"W (-94.934721)
Datum:WGS 1984
Elevation:1391 ft (424 m)
Runways:2
Longest:7004 × 150 ft (2135 × 45.5 m)

Time
Timezone:UTC+28:08 (DST+31:08)
Local Time:

Weather
METAR:KBJI  201635Z AUTO 00000KT 10SM CLR M03/M03 A2980 RMK AO2 T10301033
TAF:KBJI  201132Z 2012/2112 25004KT P6SM BKN150= TAF KGFK 201132Z 2012/2112 27005KT P6SM BKN250

Related Locations
Nearby:
Farthest:YWKS: 10800 mi / 17381 km
Wilkins Runway (Casey), Upper Peterson Glacier, AQ

Find:

   beyond  
but within

Other Information
Maps:
Links:
Sources:

  

Airport Diagram

Airport diagram for KBJI

Airport diagram PDF from FAA

Sectional Chart

Flight Planning
at skyvector.com

 


Great Circle Mapper   Great Circle Mapper
Great Circle Mapper FAQ   Great Circle Mapper FAQ
  Karl's Home Page
KLSē   KLSē Home
   GC on Facebook
Airlines of the World   Airlines of the World
Donate via PayPal


Copyright © 2004-2017, Karl L. Swartz. All rights reserved.
All trademarks mentioned herein belong to their respective owners.

Please see credits for attribution and copyright information.

Karl Swartz <karl@kls2.com>
  Powered by FreeBSD
Valid HTML 4.01!
Labeled with ICRA
hCard Microformat
Geo Microformat